sensor_id;sensor_type;location;lat;lon;timestamp;temperature;humidity
20372;DHT22;42924;37.564;-122.048;2022-09-09T00:01:59;30.00;99.90
20372;DHT22;42924;37.564;-122.048;2022-09-09T00:04:36;30.00;99.90
20372;DHT22;42924;37.564;-122.048;2022-09-09T00:07:31;30.00;99.90
20372;DHT22;42924;37.564;-122.048;2022-09-09T00:15:47;29.80;99.90
20372;DHT22;42924;37.564;-122.048;2022-09-09T00:21:18;29.90;99.90
20372;DHT22;42924;37.564;-122.048;2022-09-09T00:23:56;29.70;99.90
20372;DHT22;42924;37.564;-122.048;2022-09-09T00:26:42;29.70;99.90
20372;DHT22;42924;37.564;-122.048;2022-09-09T00:29:23;29.60;99.90
20372;DHT22;42924;37.564;-122.048;2022-09-09T00:32:11;29.50;99.90
20372;DHT22;42924;37.564;-122.048;2022-09-09T00:34:52;29.50;99.90
20372;DHT22;42924;37.564;-122.048;2022-09-09T00:37:25;29.50;99.90
20372;DHT22;42924;37.564;-122.048;2022-09-09T00:39:58;29.40;99.90
20372;DHT22;42924;37.564;-122.048;2022-09-09T00:42:43;29.40;99.90
20372;DHT22;42924;37.564;-122.048;2022-09-09T00:48:28;29.30;99.90
20372;DHT22;42924;37.564;-122.048;2022-09-09T00:51:29;29.20;99.90
20372;DHT22;42924;37.564;-122.048;2022-09-09T00:57:23;29.00;99.90
20372;DHT22;42924;37.564;-122.048;2022-09-09T01:05:07;28.90;99.90
20372;DHT22;42924;37.564;-122.048;2022-09-09T01:07:44;28.90;99.90
20372;DHT22;42924;37.564;-122.048;2022-09-09T01:13:04;28.80;99.90
20372;DHT22;42924;37.564;-122.048;2022-09-09T01:15:39;28.70;99.90
20372;DHT22;42924;37.564;-122.048;2022-09-09T01:18:17;28.70;99.90
20372;DHT22;42924;37.564;-122.048;2022-09-09T01:24:23;28.60;99.90
20372;DHT22;42924;37.564;-122.048;2022-09-09T01:27:24;28.60;99.90
20372;DHT22;42924;37.564;-122.048;2022-09-09T01:29:58;28.60;99.90
20372;DHT22;42924;37.564;-122.048;2022-09-09T01:32:44;28.60;99.90
20372;DHT22;42924;37.564;-122.048;2022-09-09T01:37:52;28.50;99.90
20372;DHT22;42924;37.564;-122.048;2022-09-09T01:40:21;28.40;99.90
20372;DHT22;42924;37.564;-122.048;2022-09-09T01:42:53;28.30;99.90
20372;DHT22;42924;37.564;-122.048;2022-09-09T01:45:25;28.30;99.90
20372;DHT22;42924;37.564;-122.048;2022-09-09T01:47:57;28.30;99.90
20372;DHT22;42924;37.564;-122.048;2022-09-09T01:50:41;28.30;99.90
20372;DHT22;42924;37.564;-122.048;2022-09-09T01:53:16;28.30;99.90
20372;DHT22;42924;37.564;-122.048;2022-09-09T01:56:23;28.30;99.90
20372;DHT22;42924;37.564;-122.048;2022-09-09T01:59:26;28.20;99.90
20372;DHT22;42924;37.564;-122.048;2022-09-09T02:05:01;28.20;99.90
20372;DHT22;42924;37.564;-122.048;2022-09-09T02:07:47;28.20;99.90
20372;DHT22;42924;37.564;-122.048;2022-09-09T02:10:32;28.10;99.90
20372;DHT22;42924;37.564;-122.048;2022-09-09T02:13:25;28.10;99.90
20372;DHT22;42924;37.564;-122.048;2022-09-09T02:16:06;28.10;99.90
20372;DHT22;42924;37.564;-122.048;2022-09-09T02:19:20;28.00;99.90
20372;DHT22;42924;37.564;-122.048;2022-09-09T02:22:10;28.00;99.90
20372;DHT22;42924;37.564;-122.048;2022-09-09T02:24:41;28.00;99.90
20372;DHT22;42924;37.564;-122.048;2022-09-09T02:27:18;28.00;99.90
20372;DHT22;42924;37.564;-122.048;2022-09-09T02:29:53;27.90;99.90
20372;DHT22;42924;37.564;-122.048;2022-09-09T02:32:37;27.80;99.90
20372;DHT22;42924;37.564;-122.048;2022-09-09T02:35:15;27.80;99.90
20372;DHT22;42924;37.564;-122.048;2022-09-09T02:37:51;27.80;99.90
20372;DHT22;42924;37.564;-122.048;2022-09-09T02:40:23;27.80;99.90
20372;DHT22;42924;37.564;-122.048;2022-09-09T02:43:00;27.80;99.90
20372;DHT22;42924;37.564;-122.048;2022-09-09T02:46:01;27.70;99.90
20372;DHT22;42924;37.564;-122.048;2022-09-09T02:48:40;27.70;99.90
20372;DHT22;42924;37.564;-122.048;2022-09-09T02:54:29;27.70;99.90
20372;DHT22;42924;37.564;-122.048;2022-09-09T02:57:23;27.70;99.90
20372;DHT22;42924;37.564;-122.048;2022-09-09T02:59:57;27.70;99.90
20372;DHT22;42924;37.564;-122.048;2022-09-09T03:02:32;27.60;99.90
20372;DHT22;42924;37.564;-122.048;2022-09-09T03:05:06;27.60;99.90
20372;DHT22;42924;37.564;-122.048;2022-09-09T03:07:37;27.60;99.90
20372;DHT22;42924;37.564;-122.048;2022-09-09T03:10:10;27.50;99.90
20372;DHT22;42924;37.564;-122.048;2022-09-09T03:12:43;27.50;99.90
20372;DHT22;42924;37.564;-122.048;2022-09-09T03:15:13;27.50;99.90
20372;DHT22;42924;37.564;-122.048;2022-09-09T03:17:46;27.50;99.90
20372;DHT22;42924;37.564;-122.048;2022-09-09T03:20:19;27.40;99.90
20372;DHT22;42924;37.564;-122.048;2022-09-09T03:22:50;27.50;99.90
20372;DHT22;42924;37.564;-122.048;2022-09-09T03:25:22;27.40;99.90
20372;DHT22;42924;37.564;-122.048;2022-09-09T03:27:56;27.40;99.90
20372;DHT22;42924;37.564;-122.048;2022-09-09T03:30:30;27.30;99.90
20372;DHT22;42924;37.564;-122.048;2022-09-09T03:33:04;27.30;99.90
20372;DHT22;42924;37.564;-122.048;2022-09-09T03:35:35;27.30;99.90
20372;DHT22;42924;37.564;-122.048;2022-09-09T03:38:06;27.30;99.90
20372;DHT22;42924;37.564;-122.048;2022-09-09T03:40:39;27.30;99.90
20372;DHT22;42924;37.564;-122.048;2022-09-09T03:43:13;27.30;99.90
20372;DHT22;42924;37.564;-122.048;2022-09-09T03:45:50;27.30;99.90
20372;DHT22;42924;37.564;-122.048;2022-09-09T03:48:20;27.10;99.90
20372;DHT22;42924;37.564;-122.048;2022-09-09T03:50:53;27.10;99.90
20372;DHT22;42924;37.564;-122.048;2022-09-09T03:53:28;27.00;99.90
20372;DHT22;42924;37.564;-122.048;2022-09-09T03:56:05;26.90;99.90
20372;DHT22;42924;37.564;-122.048;2022-09-09T03:58:38;26.90;99.90
20372;DHT22;42924;37.564;-122.048;2022-09-09T04:01:13;27.00;99.90
20372;DHT22;42924;37.564;-122.048;2022-09-09T04:03:48;27.00;99.90
20372;DHT22;42924;37.564;-122.048;2022-09-09T04:06:18;27.10;99.90
20372;DHT22;42924;37.564;-122.048;2022-09-09T04:08:51;27.00;99.90
20372;DHT22;42924;37.564;-122.048;2022-09-09T04:11:23;27.00;99.90
20372;DHT22;42924;37.564;-122.048;2022-09-09T04:13:56;27.00;99.90
20372;DHT22;42924;37.564;-122.048;2022-09-09T04:16:28;26.90;99.90
20372;DHT22;42924;37.564;-122.048;2022-09-09T04:19:01;26.90;99.90
20372;DHT22;42924;37.564;-122.048;2022-09-09T04:21:33;26.90;99.90
20372;DHT22;42924;37.564;-122.048;2022-09-09T04:24:03;26.90;99.90
20372;DHT22;42924;37.564;-122.048;2022-09-09T04:26:37;26.90;99.90
20372;DHT22;42924;37.564;-122.048;2022-09-09T04:29:08;26.80;99.90
20372;DHT22;42924;37.564;-122.048;2022-09-09T04:31:40;26.80;99.90
20372;DHT22;42924;37.564;-122.048;2022-09-09T04:34:11;26.80;99.90
20372;DHT22;42924;37.564;-122.048;2022-09-09T04:36:43;26.70;99.90
20372;DHT22;42924;37.564;-122.048;2022-09-09T04:39:15;26.70;99.90
20372;DHT22;42924;37.564;-122.048;2022-09-09T04:41:48;26.70;99.90
20372;DHT22;42924;37.564;-122.048;2022-09-09T04:44:22;26.60;99.90
20372;DHT22;42924;37.564;-122.048;2022-09-09T04:46:54;26.60;99.90
20372;DHT22;42924;37.564;-122.048;2022-09-09T04:49:26;26.60;99.90
20372;DHT22;42924;37.564;-122.048;2022-09-09T04:52:03;26.60;99.90
20372;DHT22;42924;37.564;-122.048;2022-09-09T04:54:36;26.60;99.90
20372;DHT22;42924;37.564;-122.048;2022-09-09T04:57:10;26.60;99.90
20372;DHT22;42924;37.564;-122.048;2022-09-09T04:59:48;26.60;99.90
20372;DHT22;42924;37.564;-122.048;2022-09-09T05:02:19;26.60;99.90
20372;DHT22;42924;37.564;-122.048;2022-09-09T05:04:51;26.60;99.90
20372;DHT22;42924;37.564;-122.048;2022-09-09T05:07:24;26.60;99.90
20372;DHT22;42924;37.564;-122.048;2022-09-09T05:09:55;26.60;99.90
20372;DHT22;42924;37.564;-122.048;2022-09-09T05:12:26;26.50;99.90
20372;DHT22;42924;37.564;-122.048;2022-09-09T05:14:58;26.60;99.90
20372;DHT22;42924;37.564;-122.048;2022-09-09T05:17:31;26.60;99.90
20372;DHT22;42924;37.564;-122.048;2022-09-09T05:20:04;26.50;99.90
20372;DHT22;42924;37.564;-122.048;2022-09-09T05:22:38;26.50;99.90
20372;DHT22;42924;37.564;-122.048;2022-09-09T05:25:09;26.50;99.90
20372;DHT22;42924;37.564;-122.048;2022-09-09T05:27:40;26.40;99.90
20372;DHT22;42924;37.564;-122.048;2022-09-09T05:30:11;26.40;99.90
20372;DHT22;42924;37.564;-122.048;2022-09-09T05:32:49;26.40;99.90
20372;DHT22;42924;37.564;-122.048;2022-09-09T05:35:20;26.40;99.90
20372;DHT22;42924;37.564;-122.048;2022-09-09T05:37:53;26.40;99.90
20372;DHT22;42924;37.564;-122.048;2022-09-09T05:40:29;26.40;99.90
20372;DHT22;42924;37.564;-122.048;2022-09-09T05:43:00;26.40;99.90
20372;DHT22;42924;37.564;-122.048;2022-09-09T05:45:32;26.40;99.90
20372;DHT22;42924;37.564;-122.048;2022-09-09T05:48:04;26.30;99.90
20372;DHT22;42924;37.564;-122.048;2022-09-09T05:50:37;26.30;99.90
20372;DHT22;42924;37.564;-122.048;2022-09-09T05:53:11;26.20;99.90
20372;DHT22;42924;37.564;-122.048;2022-09-09T05:55:45;26.00;99.90
20372;DHT22;42924;37.564;-122.048;2022-09-09T05:58:15;25.90;99.90
20372;DHT22;42924;37.564;-122.048;2022-09-09T06:00:46;26.00;99.90
20372;DHT22;42924;37.564;-122.048;2022-09-09T06:03:16;26.00;99.90
20372;DHT22;42924;37.564;-122.048;2022-09-09T06:06:00;26.10;99.90
20372;DHT22;42924;37.564;-122.048;2022-09-09T06:08:35;25.90;99.90
20372;DHT22;42924;37.564;-122.048;2022-09-09T06:11:13;25.80;99.90
20372;DHT22;42924;37.564;-122.048;2022-09-09T06:13:46;25.70;99.90
20372;DHT22;42924;37.564;-122.048;2022-09-09T06:16:21;25.60;99.90
20372;DHT22;42924;37.564;-122.048;2022-09-09T06:18:57;25.50;99.90
20372;DHT22;42924;37.564;-122.048;2022-09-09T06:21:36;25.40;99.90
20372;DHT22;42924;37.564;-122.048;2022-09-09T06:24:08;25.40;99.90
20372;DHT22;42924;37.564;-122.048;2022-09-09T06:26:43;25.40;99.90
20372;DHT22;42924;37.564;-122.048;2022-09-09T06:29:27;25.20;99.90
20372;DHT22;42924;37.564;-122.048;2022-09-09T06:31:58;25.10;99.90
20372;DHT22;42924;37.564;-122.048;2022-09-09T06:34:29;25.20;99.90
20372;DHT22;42924;37.564;-122.048;2022-09-09T06:37:00;25.10;99.90
20372;DHT22;42924;37.564;-122.048;2022-09-09T06:39:38;25.00;99.90
20372;DHT22;42924;37.564;-122.048;2022-09-09T06:42:12;25.00;99.90
20372;DHT22;42924;37.564;-122.048;2022-09-09T06:45:24;24.90;99.90
20372;DHT22;42924;37.564;-122.048;2022-09-09T06:47:58;24.70;99.90
20372;DHT22;42924;37.564;-122.048;2022-09-09T06:50:39;24.70;99.90
20372;DHT22;42924;37.564;-122.048;2022-09-09T06:53:10;24.70;99.90
20372;DHT22;42924;37.564;-122.048;2022-09-09T06:55:45;24.60;99.90
20372;DHT22;42924;37.564;-122.048;2022-09-09T06:58:16;24.50;99.90
20372;DHT22;42924;37.564;-122.048;2022-09-09T07:00:46;24.50;99.90
20372;DHT22;42924;37.564;-122.048;2022-09-09T07:03:21;24.50;99.90
20372;DHT22;42924;37.564;-122.048;2022-09-09T07:05:56;24.40;99.90
20372;DHT22;42924;37.564;-122.048;2022-09-09T07:08:28;24.40;99.90
20372;DHT22;42924;37.564;-122.048;2022-09-09T07:11:03;24.40;99.90
20372;DHT22;42924;37.564;-122.048;2022-09-09T07:13:41;24.30;99.90
20372;DHT22;42924;37.564;-122.048;2022-09-09T07:16:13;24.40;99.90
20372;DHT22;42924;37.564;-122.048;2022-09-09T07:18:44;24.30;99.90
20372;DHT22;42924;37.564;-122.048;2022-09-09T07:21:16;24.10;99.90
20372;DHT22;42924;37.564;-122.048;2022-09-09T07:23:46;24.10;99.90
20372;DHT22;42924;37.564;-122.048;2022-09-09T07:26:19;24.20;99.90
20372;DHT22;42924;37.564;-122.048;2022-09-09T07:28:52;24.30;99.90
20372;DHT22;42924;37.564;-122.048;2022-09-09T07:31:27;24.20;99.90
20372;DHT22;42924;37.564;-122.048;2022-09-09T07:34:00;24.30;99.90
20372;DHT22;42924;37.564;-122.048;2022-09-09T07:36:33;24.20;99.90
20372;DHT22;42924;37.564;-122.048;2022-09-09T07:39:10;24.10;99.90
20372;DHT22;42924;37.564;-122.048;2022-09-09T07:41:49;24.10;99.90
20372;DHT22;42924;37.564;-122.048;2022-09-09T07:44:23;24.10;99.90
20372;DHT22;42924;37.564;-122.048;2022-09-09T07:47:06;24.10;99.90
20372;DHT22;42924;37.564;-122.048;2022-09-09T07:49:52;24.00;99.90
20372;DHT22;42924;37.564;-122.048;2022-09-09T07:52:30;23.90;99.90
20372;DHT22;42924;37.564;-122.048;2022-09-09T07:55:04;23.90;99.90
20372;DHT22;42924;37.564;-122.048;2022-09-09T07:57:38;23.90;99.90
20372;DHT22;42924;37.564;-122.048;2022-09-09T08:00:11;24.00;99.90
20372;DHT22;42924;37.564;-122.048;2022-09-09T08:02:59;23.90;99.90
20372;DHT22;42924;37.564;-122.048;2022-09-09T08:05:31;24.00;99.90
20372;DHT22;42924;37.564;-122.048;2022-09-09T08:08:03;23.90;99.90
20372;DHT22;42924;37.564;-122.048;2022-09-09T08:10:33;23.90;99.90
20372;DHT22;42924;37.564;-122.048;2022-09-09T08:13:04;23.90;99.90
20372;DHT22;42924;37.564;-122.048;2022-09-09T08:15:51;24.00;99.90
20372;DHT22;42924;37.564;-122.048;2022-09-09T08:18:23;23.70;99.90
20372;DHT22;42924;37.564;-122.048;2022-09-09T08:20:54;23.80;99.90
20372;DHT22;42924;37.564;-122.048;2022-09-09T08:23:24;23.90;99.90
20372;DHT22;42924;37.564;-122.048;2022-09-09T08:26:05;23.80;99.90
20372;DHT22;42924;37.564;-122.048;2022-09-09T08:28:38;23.80;99.90
20372;DHT22;42924;37.564;-122.048;2022-09-09T08:31:15;23.90;99.90
20372;DHT22;42924;37.564;-122.048;2022-09-09T08:33:47;23.70;99.90
20372;DHT22;42924;37.564;-122.048;2022-09-09T08:36:23;23.70;99.90
20372;DHT22;42924;37.564;-122.048;2022-09-09T08:38:58;23.50;99.90
20372;DHT22;42924;37.564;-122.048;2022-09-09T08:50:30;23.50;99.90
20372;DHT22;42924;37.564;-122.048;2022-09-09T08:53:23;23.60;99.90
20372;DHT22;42924;37.564;-122.048;2022-09-09T08:56:10;23.60;99.90
20372;DHT22;42924;37.564;-122.048;2022-09-09T08:58:52;23.40;99.90
20372;DHT22;42924;37.564;-122.048;2022-09-09T09:04:53;23.30;99.90
20372;DHT22;42924;37.564;-122.048;2022-09-09T09:10:48;23.10;99.90
20372;DHT22;42924;37.564;-122.048;2022-09-09T09:19:33;23.20;99.90
20372;DHT22;42924;37.564;-122.048;2022-09-09T09:23:12;23.10;99.90
20372;DHT22;42924;37.564;-122.048;2022-09-09T09:25:23;23.00;99.90
20372;DHT22;42924;37.564;-122.048;2022-09-09T09:28:15;23.00;99.90
20372;DHT22;42924;37.564;-122.048;2022-09-09T09:31:11;23.10;99.90
20372;DHT22;42924;37.564;-122.048;2022-09-09T09:33:50;23.20;99.90
20372;DHT22;42924;37.564;-122.048;2022-09-09T09:36:44;23.30;99.90
20372;DHT22;42924;37.564;-122.048;2022-09-09T09:39:31;23.10;99.90
20372;DHT22;42924;37.564;-122.048;2022-09-09T09:42:30;23.30;99.90
20372;DHT22;42924;37.564;-122.048;2022-09-09T09:45:41;23.40;99.90
20372;DHT22;42924;37.564;-122.048;2022-09-09T09:48:36;23.20;99.90
20372;DHT22;42924;37.564;-122.048;2022-09-09T09:51:12;23.00;99.90
20372;DHT22;42924;37.564;-122.048;2022-09-09T09:53:48;23.00;99.90
20372;DHT22;42924;37.564;-122.048;2022-09-09T09:56:28;22.90;99.90
20372;DHT22;42924;37.564;-122.048;2022-09-09T09:59:04;22.90;99.90
20372;DHT22;42924;37.564;-122.048;2022-09-09T10:01:52;22.80;99.90
20372;DHT22;42924;37.564;-122.048;2022-09-09T10:04:24;22.80;99.90
20372;DHT22;42924;37.564;-122.048;2022-09-09T10:06:57;22.80;99.90
20372;DHT22;42924;37.564;-122.048;2022-09-09T10:09:31;23.00;99.90
20372;DHT22;42924;37.564;-122.048;2022-09-09T10:34:56;22.90;99.90
20372;DHT22;42924;37.564;-122.048;2022-09-09T10:37:49;22.80;99.90
20372;DHT22;42924;37.564;-122.048;2022-09-09T10:40:37;22.70;99.90
20372;DHT22;42924;37.564;-122.048;2022-09-09T10:46:44;23.00;99.90
20372;DHT22;42924;37.564;-122.048;2022-09-09T10:53:27;23.10;99.90
20372;DHT22;42924;37.564;-122.048;2022-09-09T10:55:39;23.10;99.90
20372;DHT22;42924;37.564;-122.048;2022-09-09T10:58:19;22.90;99.90
20372;DHT22;42924;37.564;-122.048;2022-09-09T11:01:01;22.90;99.90
20372;DHT22;42924;37.564;-122.048;2022-09-09T11:03:35;23.00;99.90
20372;DHT22;42924;37.564;-122.048;2022-09-09T11:06:18;23.20;99.90
20372;DHT22;42924;37.564;-122.048;2022-09-09T11:08:52;23.20;99.90
20372;DHT22;42924;37.564;-122.048;2022-09-09T11:11:34;23.10;99.90
20372;DHT22;42924;37.564;-122.048;2022-09-09T11:17:09;22.80;99.90
20372;DHT22;42924;37.564;-122.048;2022-09-09T11:19:42;23.00;99.90
20372;DHT22;42924;37.564;-122.048;2022-09-09T11:25:26;22.80;99.90
20372;DHT22;42924;37.564;-122.048;2022-09-09T11:37:16;22.80;99.90
20372;DHT22;42924;37.564;-122.048;2022-09-09T11:40:08;22.50;99.90
20372;DHT22;42924;37.564;-122.048;2022-09-09T11:42:43;22.30;99.90
20372;DHT22;42924;37.564;-122.048;2022-09-09T11:47:55;22.20;99.90
20372;DHT22;42924;37.564;-122.048;2022-09-09T11:53:17;22.30;99.90
20372;DHT22;42924;37.564;-122.048;2022-09-09T12:01:39;22.40;99.90
20372;DHT22;42924;37.564;-122.048;2022-09-09T12:04:16;22.50;99.90
20372;DHT22;42924;37.564;-122.048;2022-09-09T12:06:55;22.30;99.90
20372;DHT22;42924;37.564;-122.048;2022-09-09T12:17:27;22.10;99.90
20372;DHT22;42924;37.564;-122.048;2022-09-09T12:20:37;22.10;99.90
20372;DHT22;42924;37.564;-122.048;2022-09-09T12:23:15;22.20;99.90
20372;DHT22;42924;37.564;-122.048;2022-09-09T12:26:51;22.30;99.90
20372;DHT22;42924;37.564;-122.048;2022-09-09T12:31:58;22.50;99.90
20372;DHT22;42924;37.564;-122.048;2022-09-09T12:34:41;22.30;99.90
20372;DHT22;42924;37.564;-122.048;2022-09-09T12:37:15;22.50;99.90
20372;DHT22;42924;37.564;-122.048;2022-09-09T12:39:56;22.40;99.90
20372;DHT22;42924;37.564;-122.048;2022-09-09T12:42:28;22.60;99.90
20372;DHT22;42924;37.564;-122.048;2022-09-09T12:45:00;22.60;99.90
20372;DHT22;42924;37.564;-122.048;2022-09-09T12:48:06;22.50;99.90
20372;DHT22;42924;37.564;-122.048;2022-09-09T12:50:45;22.60;99.90
20372;DHT22;42924;37.564;-122.048;2022-09-09T12:53:36;22.70;99.90
20372;DHT22;42924;37.564;-122.048;2022-09-09T12:56:19;22.70;99.90
20372;DHT22;42924;37.564;-122.048;2022-09-09T12:58:52;22.70;99.90
20372;DHT22;42924;37.564;-122.048;2022-09-09T13:01:33;22.80;99.90
20372;DHT22;42924;37.564;-122.048;2022-09-09T13:04:02;22.90;99.90
20372;DHT22;42924;37.564;-122.048;2022-09-09T13:06:36;23.00;99.90
20372;DHT22;42924;37.564;-122.048;2022-09-09T13:09:09;23.00;99.90
20372;DHT22;42924;37.564;-122.048;2022-09-09T13:11:49;23.00;99.90
20372;DHT22;42924;37.564;-122.048;2022-09-09T13:16:58;23.20;99.90
20372;DHT22;42924;37.564;-122.048;2022-09-09T13:19:34;23.20;99.90
20372;DHT22;42924;37.564;-122.048;2022-09-09T13:22:43;23.20;99.90
20372;DHT22;42924;37.564;-122.048;2022-09-09T13:25:26;23.40;99.90
20372;DHT22;42924;37.564;-122.048;2022-09-09T13:28:05;23.30;99.90
20372;DHT22;42924;37.564;-122.048;2022-09-09T13:30:37;23.30;99.90
20372;DHT22;42924;37.564;-122.048;2022-09-09T13:36:03;23.50;99.90
20372;DHT22;42924;37.564;-122.048;2022-09-09T13:38:53;23.50;99.90
20372;DHT22;42924;37.564;-122.048;2022-09-09T13:41:30;23.50;99.90
20372;DHT22;42924;37.564;-122.048;2022-09-09T13:44:05;23.70;99.90
20372;DHT22;42924;37.564;-122.048;2022-09-09T13:46:40;23.70;99.90
20372;DHT22;42924;37.564;-122.048;2022-09-09T13:51:51;23.70;99.90
20372;DHT22;42924;37.564;-122.048;2022-09-09T13:54:24;23.80;99.90
20372;DHT22;42924;37.564;-122.048;2022-09-09T13:56:53;23.80;99.90
20372;DHT22;42924;37.564;-122.048;2022-09-09T13:59:25;23.90;99.90
20372;DHT22;42924;37.564;-122.048;2022-09-09T14:02:18;24.00;99.90
20372;DHT22;42924;37.564;-122.048;2022-09-09T14:04:50;24.00;99.90
20372;DHT22;42924;37.564;-122.048;2022-09-09T14:07:43;24.00;99.90
20372;DHT22;42924;37.564;-122.048;2022-09-09T14:10:17;24.20;99.90
20372;DHT22;42924;37.564;-122.048;2022-09-09T14:12:49;24.20;99.90
20372;DHT22;42924;37.564;-122.048;2022-09-09T14:15:20;24.30;99.90
20372;DHT22;42924;37.564;-122.048;2022-09-09T14:17:51;24.40;99.90
20372;DHT22;42924;37.564;-122.048;2022-09-09T14:20:23;24.50;99.90
20372;DHT22;42924;37.564;-122.048;2022-09-09T14:22:54;24.50;99.90
20372;DHT22;42924;37.564;-122.048;2022-09-09T14:25:31;24.60;99.90
20372;DHT22;42924;37.564;-122.048;2022-09-09T14:28:02;24.70;99.90
20372;DHT22;42924;37.564;-122.048;2022-09-09T14:30:41;24.80;99.90
20372;DHT22;42924;37.564;-122.048;2022-09-09T14:33:14;24.90;99.90
20372;DHT22;42924;37.564;-122.048;2022-09-09T14:35:44;24.90;99.90
20372;DHT22;42924;37.564;-122.048;2022-09-09T14:38:18;24.90;99.90
20372;DHT22;42924;37.564;-122.048;2022-09-09T14:40:49;24.90;99.90
20372;DHT22;42924;37.564;-122.048;2022-09-09T14:43:19;25.00;99.90
20372;DHT22;42924;37.564;-122.048;2022-09-09T14:46:03;25.10;99.90
20372;DHT22;42924;37.564;-122.048;2022-09-09T14:48:35;25.10;99.90
20372;DHT22;42924;37.564;-122.048;2022-09-09T14:51:13;25.20;99.90
20372;DHT22;42924;37.564;-122.048;2022-09-09T14:53:47;25.30;99.90
20372;DHT22;42924;37.564;-122.048;2022-09-09T14:56:20;25.40;99.90
20372;DHT22;42924;37.564;-122.048;2022-09-09T14:58:54;25.40;99.90
20372;DHT22;42924;37.564;-122.048;2022-09-09T15:01:28;25.50;99.90
20372;DHT22;42924;37.564;-122.048;2022-09-09T15:04:00;25.50;99.90
20372;DHT22;42924;37.564;-122.048;2022-09-09T15:06:34;25.50;99.90
20372;DHT22;42924;37.564;-122.048;2022-09-09T15:09:09;25.70;99.90
20372;DHT22;42924;37.564;-122.048;2022-09-09T15:11:42;25.70;99.90
20372;DHT22;42924;37.564;-122.048;2022-09-09T15:14:14;25.70;99.90
20372;DHT22;42924;37.564;-122.048;2022-09-09T15:16:53;25.90;99.90
20372;DHT22;42924;37.564;-122.048;2022-09-09T15:19:25;26.00;99.90
20372;DHT22;42924;37.564;-122.048;2022-09-09T15:21:59;26.10;99.90
20372;DHT22;42924;37.564;-122.048;2022-09-09T15:24:29;26.00;99.90
20372;DHT22;42924;37.564;-122.048;2022-09-09T15:26:59;25.90;99.90
20372;DHT22;42924;37.564;-122.048;2022-09-09T15:29:30;26.00;99.90
20372;DHT22;42924;37.564;-122.048;2022-09-09T15:32:00;26.10;99.90
20372;DHT22;42924;37.564;-122.048;2022-09-09T15:34:30;26.30;99.90
20372;DHT22;42924;37.564;-122.048;2022-09-09T15:37:03;26.40;99.90
20372;DHT22;42924;37.564;-122.048;2022-09-09T15:39:34;26.60;99.90
20372;DHT22;42924;37.564;-122.048;2022-09-09T15:42:07;26.70;99.90
20372;DHT22;42924;37.564;-122.048;2022-09-09T15:44:46;26.70;99.90
20372;DHT22;42924;37.564;-122.048;2022-09-09T15:47:18;26.90;99.90
20372;DHT22;42924;37.564;-122.048;2022-09-09T15:49:50;27.00;99.90
20372;DHT22;42924;37.564;-122.048;2022-09-09T15:52:23;26.90;99.90
20372;DHT22;42924;37.564;-122.048;2022-09-09T15:54:55;27.00;99.90
20372;DHT22;42924;37.564;-122.048;2022-09-09T15:57:25;27.00;99.90
20372;DHT22;42924;37.564;-122.048;2022-09-09T15:59:56;27.20;99.90
20372;DHT22;42924;37.564;-122.048;2022-09-09T16:02:31;27.20;99.90
20372;DHT22;42924;37.564;-122.048;2022-09-09T16:05:02;27.40;99.90
20372;DHT22;42924;37.564;-122.048;2022-09-09T16:07:33;27.50;99.90
20372;DHT22;42924;37.564;-122.048;2022-09-09T16:10:07;27.60;99.90
20372;DHT22;42924;37.564;-122.048;2022-09-09T16:12:40;27.60;99.90
20372;DHT22;42924;37.564;-122.048;2022-09-09T16:15:10;27.70;99.90
20372;DHT22;42924;37.564;-122.048;2022-09-09T16:17:43;27.70;99.90
20372;DHT22;42924;37.564;-122.048;2022-09-09T16:20:16;27.60;99.90
20372;DHT22;42924;37.564;-122.048;2022-09-09T16:22:47;27.70;99.90
20372;DHT22;42924;37.564;-122.048;2022-09-09T16:25:19;27.80;99.90
20372;DHT22;42924;37.564;-122.048;2022-09-09T16:27:50;27.50;99.90
20372;DHT22;42924;37.564;-122.048;2022-09-09T16:30:23;27.60;99.90
20372;DHT22;42924;37.564;-122.048;2022-09-09T16:32:54;27.70;99.90
20372;DHT22;42924;37.564;-122.048;2022-09-09T16:35:27;27.90;99.90
20372;DHT22;42924;37.564;-122.048;2022-09-09T16:37:57;27.90;99.90
20372;DHT22;42924;37.564;-122.048;2022-09-09T16:40:28;27.80;99.90
20372;DHT22;42924;37.564;-122.048;2022-09-09T16:42:59;27.40;99.90
20372;DHT22;42924;37.564;-122.048;2022-09-09T16:45:30;27.40;99.90
20372;DHT22;42924;37.564;-122.048;2022-09-09T16:48:02;27.60;99.90
20372;DHT22;42924;37.564;-122.048;2022-09-09T16:50:32;27.80;99.90
20372;DHT22;42924;37.564;-122.048;2022-09-09T16:53:04;27.80;99.90
20372;DHT22;42924;37.564;-122.048;2022-09-09T16:55:40;27.90;99.90
20372;DHT22;42924;37.564;-122.048;2022-09-09T16:58:13;27.90;99.90
20372;DHT22;42924;37.564;-122.048;2022-09-09T17:00:43;27.90;99.90
20372;DHT22;42924;37.564;-122.048;2022-09-09T17:03:18;28.10;99.90
20372;DHT22;42924;37.564;-122.048;2022-09-09T17:05:50;28.10;99.90
20372;DHT22;42924;37.564;-122.048;2022-09-09T17:08:22;28.00;99.90
20372;DHT22;42924;37.564;-122.048;2022-09-09T17:10:58;28.10;99.90
20372;DHT22;42924;37.564;-122.048;2022-09-09T17:13:28;28.30;99.90
20372;DHT22;42924;37.564;-122.048;2022-09-09T17:16:04;28.40;99.90
20372;DHT22;42924;37.564;-122.048;2022-09-09T17:18:35;28.40;99.90
20372;DHT22;42924;37.564;-122.048;2022-09-09T17:21:08;28.50;99.90
20372;DHT22;42924;37.564;-122.048;2022-09-09T17:23:42;28.20;99.90
20372;DHT22;42924;37.564;-122.048;2022-09-09T17:26:18;28.00;99.90
20372;DHT22;42924;37.564;-122.048;2022-09-09T17:28:50;27.90;99.90
20372;DHT22;42924;37.564;-122.048;2022-09-09T17:31:28;27.90;99.90
20372;DHT22;42924;37.564;-122.048;2022-09-09T17:34:00;27.90;99.90
20372;DHT22;42924;37.564;-122.048;2022-09-09T17:36:34;27.90;99.90
20372;DHT22;42924;37.564;-122.048;2022-09-09T17:39:06;28.20;99.90
20372;DHT22;42924;37.564;-122.048;2022-09-09T17:41:40;28.50;99.90
20372;DHT22;42924;37.564;-122.048;2022-09-09T17:44:15;28.90;99.90
20372;DHT22;42924;37.564;-122.048;2022-09-09T17:46:46;28.80;99.90
20372;DHT22;42924;37.564;-122.048;2022-09-09T17:49:19;29.00;99.90
20372;DHT22;42924;37.564;-122.048;2022-09-09T17:51:49;29.00;99.90
20372;DHT22;42924;37.564;-122.048;2022-09-09T17:54:21;28.80;99.90
20372;DHT22;42924;37.564;-122.048;2022-09-09T17:56:51;28.60;99.90